sensor_id;sensor_type;location;lat;lon;timestamp;temperature;humidity
19561;DHT22;9927;47.792;10.616;2023-03-20T04:02:42;7.10;99.90
19561;DHT22;9927;47.792;10.616;2023-03-20T04:05:11;7.10;99.90
19561;DHT22;9927;47.792;10.616;2023-03-20T04:07:39;7.20;99.90
19561;DHT22;9927;47.792;10.616;2023-03-20T04:10:10;7.40;99.90
19561;DHT22;9927;47.792;10.616;2023-03-20T04:12:40;7.40;99.90
19561;DHT22;9927;47.792;10.616;2023-03-20T04:15:08;7.50;99.90
19561;DHT22;9927;47.792;10.616;2023-03-20T04:17:35;7.60;99.90
19561;DHT22;9927;47.792;10.616;2023-03-20T04:20:03;7.70;99.90
19561;DHT22;9927;47.792;10.616;2023-03-20T04:22:31;7.70;99.90
19561;DHT22;9927;47.792;10.616;2023-03-20T04:25:05;7.70;99.90
19561;DHT22;9927;47.792;10.616;2023-03-20T04:27:32;7.80;99.90
19561;DHT22;9927;47.792;10.616;2023-03-20T04:30:00;7.80;99.90
19561;DHT22;9927;47.792;10.616;2023-03-20T04:32:27;7.80;99.90
19561;DHT22;9927;47.792;10.616;2023-03-20T04:34:54;7.80;99.90
19561;DHT22;9927;47.792;10.616;2023-03-20T04:37:22;7.90;99.90
19561;DHT22;9927;47.792;10.616;2023-03-20T04:39:49;7.90;99.90
19561;DHT22;9927;47.792;10.616;2023-03-20T04:42:16;7.90;99.90
19561;DHT22;9927;47.792;10.616;2023-03-20T04:44:44;7.80;99.90
19561;DHT22;9927;47.792;10.616;2023-03-20T04:47:11;7.80;99.90
19561;DHT22;9927;47.792;10.616;2023-03-20T04:49:39;7.90;99.90
19561;DHT22;9927;47.792;10.616;2023-03-20T04:52:06;7.90;99.90
19561;DHT22;9927;47.792;10.616;2023-03-20T04:54:34;7.90;99.90
19561;DHT22;9927;47.792;10.616;2023-03-20T04:57:01;7.90;99.90
19561;DHT22;9927;47.792;10.616;2023-03-20T04:59:29;7.90;99.90
19561;DHT22;9927;47.792;10.616;2023-03-20T05:01:56;8.00;99.90
19561;DHT22;9927;47.792;10.616;2023-03-20T05:04:23;8.00;99.90
19561;DHT22;9927;47.792;10.616;2023-03-20T05:06:50;8.00;99.90
19561;DHT22;9927;47.792;10.616;2023-03-20T05:09:18;7.90;99.90
19561;DHT22;9927;47.792;10.616;2023-03-20T05:11:45;7.90;99.90
19561;DHT22;9927;47.792;10.616;2023-03-20T05:14:12;8.00;99.90
19561;DHT22;9927;47.792;10.616;2023-03-20T05:16:40;8.10;99.90
19561;DHT22;9927;47.792;10.616;2023-03-20T05:19:07;8.10;99.90
19561;DHT22;9927;47.792;10.616;2023-03-20T05:21:34;8.10;99.90
19561;DHT22;9927;47.792;10.616;2023-03-20T05:24:02;8.20;99.90
19561;DHT22;9927;47.792;10.616;2023-03-20T05:26:29;8.20;99.90
19561;DHT22;9927;47.792;10.616;2023-03-20T05:28:56;8.20;99.90
19561;DHT22;9927;47.792;10.616;2023-03-20T05:31:23;8.20;99.90
19561;DHT22;9927;47.792;10.616;2023-03-20T05:33:50;8.30;99.90
19561;DHT22;9927;47.792;10.616;2023-03-20T05:36:18;8.30;99.90
19561;DHT22;9927;47.792;10.616;2023-03-20T05:38:45;8.30;99.90
19561;DHT22;9927;47.792;10.616;2023-03-20T05:41:12;8.40;99.90
19561;DHT22;9927;47.792;10.616;2023-03-20T05:43:39;8.40;99.90
19561;DHT22;9927;47.792;10.616;2023-03-20T05:46:07;8.40;99.90
19561;DHT22;9927;47.792;10.616;2023-03-20T05:48:34;8.30;99.90
19561;DHT22;9927;47.792;10.616;2023-03-20T05:51:01;8.40;99.90
19561;DHT22;9927;47.792;10.616;2023-03-20T05:53:28;8.30;99.90
19561;DHT22;9927;47.792;10.616;2023-03-20T05:55:56;8.30;99.90
19561;DHT22;9927;47.792;10.616;2023-03-20T05:58:23;8.50;99.90
19561;DHT22;9927;47.792;10.616;2023-03-20T06:00:50;8.50;99.90
19561;DHT22;9927;47.792;10.616;2023-03-20T06:03:18;8.60;99.90
19561;DHT22;9927;47.792;10.616;2023-03-20T06:05:45;8.60;99.90
19561;DHT22;9927;47.792;10.616;2023-03-20T06:08:12;8.70;99.90
19561;DHT22;9927;47.792;10.616;2023-03-20T06:10:41;8.70;99.90
19561;DHT22;9927;47.792;10.616;2023-03-20T06:13:09;8.70;99.90
19561;DHT22;9927;47.792;10.616;2023-03-20T06:15:36;8.80;99.90
19561;DHT22;9927;47.792;10.616;2023-03-20T06:18:03;8.80;99.90
19561;DHT22;9927;47.792;10.616;2023-03-20T06:20:31;8.80;99.90
19561;DHT22;9927;47.792;10.616;2023-03-20T06:22:58;8.90;99.90
19561;DHT22;9927;47.792;10.616;2023-03-20T06:25:25;8.90;99.90
19561;DHT22;9927;47.792;10.616;2023-03-20T06:27:53;8.90;99.90
19561;DHT22;9927;47.792;10.616;2023-03-20T06:30:20;8.90;99.90
19561;DHT22;9927;47.792;10.616;2023-03-20T06:32:47;8.90;99.90
19561;DHT22;9927;47.792;10.616;2023-03-20T06:35:15;9.10;99.90
19561;DHT22;9927;47.792;10.616;2023-03-20T06:37:42;9.80;99.90
19561;DHT22;9927;47.792;10.616;2023-03-20T06:40:09;10.10;99.90
19561;DHT22;9927;47.792;10.616;2023-03-20T06:42:37;10.10;99.90
19561;DHT22;9927;47.792;10.616;2023-03-20T06:45:05;10.10;99.90
19561;DHT22;9927;47.792;10.616;2023-03-20T06:47:32;10.10;99.90
19561;DHT22;9927;47.792;10.616;2023-03-20T06:49:59;10.10;99.90
19561;DHT22;9927;47.792;10.616;2023-03-20T06:52:27;10.10;99.90
19561;DHT22;9927;47.792;10.616;2023-03-20T06:54:54;10.10;99.90
19561;DHT22;9927;47.792;10.616;2023-03-20T06:57:22;10.10;99.90
19561;DHT22;9927;47.792;10.616;2023-03-20T06:59:50;10.20;99.90
19561;DHT22;9927;47.792;10.616;2023-03-20T07:02:17;10.30;99.90
19561;DHT22;9927;47.792;10.616;2023-03-20T07:04:44;10.40;99.90
19561;DHT22;9927;47.792;10.616;2023-03-20T07:07:11;10.60;99.90
19561;DHT22;9927;47.792;10.616;2023-03-20T07:09:39;10.80;99.90
19561;DHT22;9927;47.792;10.616;2023-03-20T07:12:16;10.90;99.90
19561;DHT22;9927;47.792;10.616;2023-03-20T07:14:46;10.80;99.90
19561;DHT22;9927;47.792;10.616;2023-03-20T07:17:13;10.90;99.90
19561;DHT22;9927;47.792;10.616;2023-03-20T07:19:40;11.00;99.90
19561;DHT22;9927;47.792;10.616;2023-03-20T07:22:15;11.00;99.90
19561;DHT22;9927;47.792;10.616;2023-03-20T07:24:44;10.90;99.90
19561;DHT22;9927;47.792;10.616;2023-03-20T07:27:13;10.80;99.90
19561;DHT22;9927;47.792;10.616;2023-03-20T07:29:40;10.90;99.90
19561;DHT22;9927;47.792;10.616;2023-03-20T07:32:08;11.00;99.90
19561;DHT22;9927;47.792;10.616;2023-03-20T07:34:35;10.70;99.90
19561;DHT22;9927;47.792;10.616;2023-03-20T07:37:03;10.90;99.90
19561;DHT22;9927;47.792;10.616;2023-03-20T07:39:30;11.20;99.90
19561;DHT22;9927;47.792;10.616;2023-03-20T07:41:58;11.10;99.90
19561;DHT22;9927;47.792;10.616;2023-03-20T07:44:25;10.80;99.90
19561;DHT22;9927;47.792;10.616;2023-03-20T07:46:52;10.50;99.90
19561;DHT22;9927;47.792;10.616;2023-03-20T07:49:20;10.30;99.90
19561;DHT22;9927;47.792;10.616;2023-03-20T07:51:48;10.50;99.90
19561;DHT22;9927;47.792;10.616;2023-03-20T07:54:16;10.60;99.90
19561;DHT22;9927;47.792;10.616;2023-03-20T07:56:43;10.70;99.90
19561;DHT22;9927;47.792;10.616;2023-03-20T07:59:11;10.60;99.90
19561;DHT22;9927;47.792;10.616;2023-03-20T08:01:39;10.50;99.90
19561;DHT22;9927;47.792;10.616;2023-03-20T08:04:06;10.60;99.90
19561;DHT22;9927;47.792;10.616;2023-03-20T08:06:34;11.00;99.90
19561;DHT22;9927;47.792;10.616;2023-03-20T08:09:02;11.10;99.90
19561;DHT22;9927;47.792;10.616;2023-03-20T08:11:29;11.50;99.90
19561;DHT22;9927;47.792;10.616;2023-03-20T08:14:00;11.70;99.90
19561;DHT22;9927;47.792;10.616;2023-03-20T08:16:27;11.80;99.90
19561;DHT22;9927;47.792;10.616;2023-03-20T08:18:54;12.90;99.90
19561;DHT22;9927;47.792;10.616;2023-03-20T08:21:28;13.90;99.90
19561;DHT22;9927;47.792;10.616;2023-03-20T08:23:55;15.00;99.90
19561;DHT22;9927;47.792;10.616;2023-03-20T08:26:24;14.70;99.90
19561;DHT22;9927;47.792;10.616;2023-03-20T08:28:51;14.30;99.90
19561;DHT22;9927;47.792;10.616;2023-03-20T08:31:19;14.20;99.90
19561;DHT22;9927;47.792;10.616;2023-03-20T08:33:47;14.30;99.90
19561;DHT22;9927;47.792;10.616;2023-03-20T08:36:15;14.30;99.90
19561;DHT22;9927;47.792;10.616;2023-03-20T08:38:47;13.80;99.90
19561;DHT22;9927;47.792;10.616;2023-03-20T08:41:15;12.50;99.90
19561;DHT22;9927;47.792;10.616;2023-03-20T08:43:43;12.60;99.90
19561;DHT22;9927;47.792;10.616;2023-03-20T08:46:10;13.50;99.90
19561;DHT22;9927;47.792;10.616;2023-03-20T08:48:38;14.80;99.90
19561;DHT22;9927;47.792;10.616;2023-03-20T08:51:07;16.00;99.90
19561;DHT22;9927;47.792;10.616;2023-03-20T08:53:34;17.50;99.90
19561;DHT22;9927;47.792;10.616;2023-03-20T08:56:03;17.50;99.90
19561;DHT22;9927;47.792;10.616;2023-03-20T08:58:30;17.10;99.90
19561;DHT22;9927;47.792;10.616;2023-03-20T09:01:03;16.50;99.70
19561;DHT22;9927;47.792;10.616;2023-03-20T09:03:31;14.50;99.90
19561;DHT22;9927;47.792;10.616;2023-03-20T09:05:58;14.30;99.90
19561;DHT22;9927;47.792;10.616;2023-03-20T09:08:25;13.20;99.90
19561;DHT22;9927;47.792;10.616;2023-03-20T09:10:53;12.70;99.90
19561;DHT22;9927;47.792;10.616;2023-03-20T09:13:20;12.90;99.90
19561;DHT22;9927;47.792;10.616;2023-03-20T09:15:54;13.00;99.90
19561;DHT22;9927;47.792;10.616;2023-03-20T09:18:23;12.90;99.90
19561;DHT22;9927;47.792;10.616;2023-03-20T09:20:50;13.30;99.90
19561;DHT22;9927;47.792;10.616;2023-03-20T09:23:18;13.70;99.90
19561;DHT22;9927;47.792;10.616;2023-03-20T09:25:46;14.00;99.90
19561;DHT22;9927;47.792;10.616;2023-03-20T09:28:13;13.80;99.90
19561;DHT22;9927;47.792;10.616;2023-03-20T09:30:41;13.90;99.90
19561;DHT22;9927;47.792;10.616;2023-03-20T09:33:10;13.50;99.90
19561;DHT22;9927;47.792;10.616;2023-03-20T09:35:37;13.10;99.90
19561;DHT22;9927;47.792;10.616;2023-03-20T09:38:05;13.50;99.90
19561;DHT22;9927;47.792;10.616;2023-03-20T09:46:20;14.20;99.90
19561;DHT22;9927;47.792;10.616;2023-03-20T09:52:31;14.50;99.90
19561;DHT22;9927;47.792;10.616;2023-03-20T09:55:12;14.70;99.90
19561;DHT22;9927;47.792;10.616;2023-03-20T09:57:49;14.50;99.90
19561;DHT22;9927;47.792;10.616;2023-03-20T10:00:24;13.90;99.90
19561;DHT22;9927;47.792;10.616;2023-03-20T10:03:01;13.80;99.90
19561;DHT22;9927;47.792;10.616;2023-03-20T10:05:37;14.10;99.90
19561;DHT22;9927;47.792;10.616;2023-03-20T10:08:09;13.90;99.90
19561;DHT22;9927;47.792;10.616;2023-03-20T10:17:33;14.90;99.90
19561;DHT22;9927;47.792;10.616;2023-03-20T10:19:44;14.80;99.90
19561;DHT22;9927;47.792;10.616;2023-03-20T10:22:21;14.80;99.90
19561;DHT22;9927;47.792;10.616;2023-03-20T10:24:57;15.70;99.90
19561;DHT22;9927;47.792;10.616;2023-03-20T10:27:43;15.60;99.90
19561;DHT22;9927;47.792;10.616;2023-03-20T10:36:10;15.20;99.30
19561;DHT22;9927;47.792;10.616;2023-03-20T10:38:57;15.30;99.90
19561;DHT22;9927;47.792;10.616;2023-03-20T10:41:32;15.30;98.30
19561;DHT22;9927;47.792;10.616;2023-03-20T10:44:01;15.00;99.00
19561;DHT22;9927;47.792;10.616;2023-03-20T10:46:31;14.90;99.70
19561;DHT22;9927;47.792;10.616;2023-03-20T10:49:06;14.70;97.70
19561;DHT22;9927;47.792;10.616;2023-03-20T10:54:32;14.60;99.90
19561;DHT22;9927;47.792;10.616;2023-03-20T10:57:02;14.80;99.90
19561;DHT22;9927;47.792;10.616;2023-03-20T10:59:38;14.80;99.90
19561;DHT22;9927;47.792;10.616;2023-03-20T11:02:17;15.10;99.90
19561;DHT22;9927;47.792;10.616;2023-03-20T11:04:45;14.80;99.90
19561;DHT22;9927;47.792;10.616;2023-03-20T11:07:22;15.00;99.90
19561;DHT22;9927;47.792;10.616;2023-03-20T11:10:06;15.50;99.90
19561;DHT22;9927;47.792;10.616;2023-03-20T11:12:36;15.80;99.60
19561;DHT22;9927;47.792;10.616;2023-03-20T11:15:25;15.90;97.60
19561;DHT22;9927;47.792;10.616;2023-03-20T11:17:58;15.60;96.70
19561;DHT22;9927;47.792;10.616;2023-03-20T11:20:31;15.40;98.20
19561;DHT22;9927;47.792;10.616;2023-03-20T11:23:04;14.90;99.60
19561;DHT22;9927;47.792;10.616;2023-03-20T11:25:34;14.90;99.10
19561;DHT22;9927;47.792;10.616;2023-03-20T11:31:15;15.50;99.20
19561;DHT22;9927;47.792;10.616;2023-03-20T11:36:28;15.10;98.30
19561;DHT22;9927;47.792;10.616;2023-03-20T11:39:23;15.30;99.10
19561;DHT22;9927;47.792;10.616;2023-03-20T11:41:56;15.60;98.80
19561;DHT22;9927;47.792;10.616;2023-03-20T11:44:29;15.00;99.90
19561;DHT22;9927;47.792;10.616;2023-03-20T11:47:11;14.90;99.90
19561;DHT22;9927;47.792;10.616;2023-03-20T11:49:52;14.90;99.90
19561;DHT22;9927;47.792;10.616;2023-03-20T11:52:25;15.30;99.10
19561;DHT22;9927;47.792;10.616;2023-03-20T11:54:56;15.70;99.10
19561;DHT22;9927;47.792;10.616;2023-03-20T12:00:00;15.60;98.00
19561;DHT22;9927;47.792;10.616;2023-03-20T12:02:28;15.50;98.90
19561;DHT22;9927;47.792;10.616;2023-03-20T12:04:59;15.30;98.50
19561;DHT22;9927;47.792;10.616;2023-03-20T12:07:34;15.10;99.30
19561;DHT22;9927;47.792;10.616;2023-03-20T12:10:10;14.90;99.90
19561;DHT22;9927;47.792;10.616;2023-03-20T12:12:46;14.70;99.70
19561;DHT22;9927;47.792;10.616;2023-03-20T12:15:26;14.40;99.50
19561;DHT22;9927;47.792;10.616;2023-03-20T12:18:09;14.20;99.90
19561;DHT22;9927;47.792;10.616;2023-03-20T12:26:02;14.30;99.90
19561;DHT22;9927;47.792;10.616;2023-03-20T12:31:41;14.10;99.70
19561;DHT22;9927;47.792;10.616;2023-03-20T12:34:43;14.00;99.90
19561;DHT22;9927;47.792;10.616;2023-03-20T12:37:13;14.00;99.90
19561;DHT22;9927;47.792;10.616;2023-03-20T12:44:50;14.00;99.90
19561;DHT22;9927;47.792;10.616;2023-03-20T12:53:13;14.40;99.90
19561;DHT22;9927;47.792;10.616;2023-03-20T12:59:04;14.60;99.90
19561;DHT22;9927;47.792;10.616;2023-03-20T13:02:01;14.60;99.90
19561;DHT22;9927;47.792;10.616;2023-03-20T13:05:17;14.20;99.30
19561;DHT22;9927;47.792;10.616;2023-03-20T13:08:10;14.20;99.30
19561;DHT22;9927;47.792;10.616;2023-03-20T13:10:47;14.30;98.30
19561;DHT22;9927;47.792;10.616;2023-03-20T13:13:42;14.60;99.50
19561;DHT22;9927;47.792;10.616;2023-03-20T13:16:56;14.60;99.50
19561;DHT22;9927;47.792;10.616;2023-03-20T13:22:07;14.00;97.90
19561;DHT22;9927;47.792;10.616;2023-03-20T13:24:47;14.10;98.70
19561;DHT22;9927;47.792;10.616;2023-03-20T13:30:17;14.80;99.60
19561;DHT22;9927;47.792;10.616;2023-03-20T13:38:21;15.60;98.10
19561;DHT22;9927;47.792;10.616;2023-03-20T13:40:57;14.80;97.30
19561;DHT22;9927;47.792;10.616;2023-03-20T13:43:44;14.60;99.90
19561;DHT22;9927;47.792;10.616;2023-03-20T13:46:21;14.60;99.50
19561;DHT22;9927;47.792;10.616;2023-03-20T13:48:50;14.90;97.80
19561;DHT22;9927;47.792;10.616;2023-03-20T13:51:32;15.10;97.10
19561;DHT22;9927;47.792;10.616;2023-03-20T13:57:00;15.10;97.40
19561;DHT22;9927;47.792;10.616;2023-03-20T13:59:59;14.60;96.90
19561;DHT22;9927;47.792;10.616;2023-03-20T14:05:17;14.80;97.40
19561;DHT22;9927;47.792;10.616;2023-03-20T14:07:46;15.00;97.80
19561;DHT22;9927;47.792;10.616;2023-03-20T14:13:25;15.10;96.60
19561;DHT22;9927;47.792;10.616;2023-03-20T14:15:56;15.00;96.90
19561;DHT22;9927;47.792;10.616;2023-03-20T14:18:27;15.20;97.60
19561;DHT22;9927;47.792;10.616;2023-03-20T14:21:00;15.40;97.00
19561;DHT22;9927;47.792;10.616;2023-03-20T14:23:31;15.60;96.40
19561;DHT22;9927;47.792;10.616;2023-03-20T14:26:03;15.70;96.70
19561;DHT22;9927;47.792;10.616;2023-03-20T14:28:59;15.00;96.50
19561;DHT22;9927;47.792;10.616;2023-03-20T14:31:34;14.40;97.00
19561;DHT22;9927;47.792;10.616;2023-03-20T14:34:17;13.60;97.10
19561;DHT22;9927;47.792;10.616;2023-03-20T14:42:35;14.60;97.50
19561;DHT22;9927;47.792;10.616;2023-03-20T14:45:43;14.40;96.50
19561;DHT22;9927;47.792;10.616;2023-03-20T14:48:36;14.30;96.80
19561;DHT22;9927;47.792;10.616;2023-03-20T14:56:50;14.60;97.30
19561;DHT22;9927;47.792;10.616;2023-03-20T14:59:19;14.70;96.50
19561;DHT22;9927;47.792;10.616;2023-03-20T15:07:16;14.90;97.00
19561;DHT22;9927;47.792;10.616;2023-03-20T15:09:50;14.70;96.70
19561;DHT22;9927;47.792;10.616;2023-03-20T15:12:24;14.50;95.80
19561;DHT22;9927;47.792;10.616;2023-03-20T15:15:00;14.40;96.50
19561;DHT22;9927;47.792;10.616;2023-03-20T15:17:39;14.20;96.90
19561;DHT22;9927;47.792;10.616;2023-03-20T15:22:56;14.80;95.70
19561;DHT22;9927;47.792;10.616;2023-03-20T15:25:32;15.20;95.00
19561;DHT22;9927;47.792;10.616;2023-03-20T15:28:07;14.80;95.50
19561;DHT22;9927;47.792;10.616;2023-03-20T15:30:37;14.50;95.70
19561;DHT22;9927;47.792;10.616;2023-03-20T15:33:09;14.30;97.00
19561;DHT22;9927;47.792;10.616;2023-03-20T15:35:39;13.80;95.60
19561;DHT22;9927;47.792;10.616;2023-03-20T15:38:07;13.80;96.50
19561;DHT22;9927;47.792;10.616;2023-03-20T15:40:39;14.00;95.80
19561;DHT22;9927;47.792;10.616;2023-03-20T15:43:25;14.00;97.10
19561;DHT22;9927;47.792;10.616;2023-03-20T15:45:55;14.20;96.40
19561;DHT22;9927;47.792;10.616;2023-03-20T15:48:46;14.20;96.20
19561;DHT22;9927;47.792;10.616;2023-03-20T15:51:15;14.20;95.50
19561;DHT22;9927;47.792;10.616;2023-03-20T15:53:46;14.10;96.10
19561;DHT22;9927;47.792;10.616;2023-03-20T15:56:16;14.10;96.00
19561;DHT22;9927;47.792;10.616;2023-03-20T15:58:47;14.00;96.20
19561;DHT22;9927;47.792;10.616;2023-03-20T16:01:18;14.00;96.30
19561;DHT22;9927;47.792;10.616;2023-03-20T16:03:46;13.80;96.80
19561;DHT22;9927;47.792;10.616;2023-03-20T16:06:18;13.70;97.10
19561;DHT22;9927;47.792;10.616;2023-03-20T16:09:01;13.80;96.80
19561;DHT22;9927;47.792;10.616;2023-03-20T16:11:40;13.70;96.20
19561;DHT22;9927;47.792;10.616;2023-03-20T16:14:21;13.40;96.70
19561;DHT22;9927;47.792;10.616;2023-03-20T16:16:52;13.40;97.00
19561;DHT22;9927;47.792;10.616;2023-03-20T16:19:21;13.30;96.90
19561;DHT22;9927;47.792;10.616;2023-03-20T16:22:25;13.30;97.70
19561;DHT22;9927;47.792;10.616;2023-03-20T16:24:51;12.80;98.30
19561;DHT22;9927;47.792;10.616;2023-03-20T16:27:30;12.70;98.90
19561;DHT22;9927;47.792;10.616;2023-03-20T16:30:02;12.80;98.90
19561;DHT22;9927;47.792;10.616;2023-03-20T16:32:38;12.80;98.60
19561;DHT22;9927;47.792;10.616;2023-03-20T16:35:18;12.70;98.40
19561;DHT22;9927;47.792;10.616;2023-03-20T16:37:51;12.60;98.60
19561;DHT22;9927;47.792;10.616;2023-03-20T16:40:27;12.40;98.60
19561;DHT22;9927;47.792;10.616;2023-03-20T16:43:15;12.40;98.80
19561;DHT22;9927;47.792;10.616;2023-03-20T16:45:51;12.10;99.10
19561;DHT22;9927;47.792;10.616;2023-03-20T16:48:23;12.10;99.60
19561;DHT22;9927;47.792;10.616;2023-03-20T16:51:08;11.90;99.60
19561;DHT22;9927;47.792;10.616;2023-03-20T16:53:40;11.70;99.90
19561;DHT22;9927;47.792;10.616;2023-03-20T16:56:13;11.80;99.90
19561;DHT22;9927;47.792;10.616;2023-03-20T16:58:44;11.70;99.90
19561;DHT22;9927;47.792;10.616;2023-03-20T17:01:18;11.40;99.90
19561;DHT22;9927;47.792;10.616;2023-03-20T17:03:54;11.30;99.90
19561;DHT22;9927;47.792;10.616;2023-03-20T17:08:52;11.30;99.90
19561;DHT22;9927;47.792;10.616;2023-03-20T17:11:44;11.20;99.90
19561;DHT22;9927;47.792;10.616;2023-03-20T17:14:11;11.20;99.90
19561;DHT22;9927;47.792;10.616;2023-03-20T17:16:39;11.00;99.90
19561;DHT22;9927;47.792;10.616;2023-03-20T17:19:12;10.90;99.90
19561;DHT22;9927;47.792;10.616;2023-03-20T17:21:41;10.90;99.90
19561;DHT22;9927;47.792;10.616;2023-03-20T17:24:09;10.70;99.90
19561;DHT22;9927;47.792;10.616;2023-03-20T17:26:37;10.70;99.90
19561;DHT22;9927;47.792;10.616;2023-03-20T17:29:05;10.60;99.90
19561;DHT22;9927;47.792;10.616;2023-03-20T17:31:33;10.50;99.90
19561;DHT22;9927;47.792;10.616;2023-03-20T17:34:00;10.40;99.90
19561;DHT22;9927;47.792;10.616;2023-03-20T17:36:30;10.40;99.90
19561;DHT22;9927;47.792;10.616;2023-03-20T17:38:58;10.30;99.90
19561;DHT22;9927;47.792;10.616;2023-03-20T17:41:26;10.20;99.90
19561;DHT22;9927;47.792;10.616;2023-03-20T17:43:54;10.10;99.90
19561;DHT22;9927;47.792;10.616;2023-03-20T17:46:27;10.00;99.90
19561;DHT22;9927;47.792;10.616;2023-03-20T17:49:01;9.90;99.90
19561;DHT22;9927;47.792;10.616;2023-03-20T17:51:29;9.90;99.90
19561;DHT22;9927;47.792;10.616;2023-03-20T17:53:57;9.80;99.90
19561;DHT22;9927;47.792;10.616;2023-03-20T17:56:26;9.70;99.90
19561;DHT22;9927;47.792;10.616;2023-03-20T17:58:56;9.70;99.90
19561;DHT22;9927;47.792;10.616;2023-03-20T18:01:24;9.60;99.90
19561;DHT22;9927;47.792;10.616;2023-03-20T18:03:52;9.60;99.90
19561;DHT22;9927;47.792;10.616;2023-03-20T18:06:24;9.50;99.90
19561;DHT22;9927;47.792;10.616;2023-03-20T18:08:53;9.50;99.90
19561;DHT22;9927;47.792;10.616;2023-03-20T18:11:21;9.40;99.90
19561;DHT22;9927;47.792;10.616;2023-03-20T18:13:48;9.40;99.90
19561;DHT22;9927;47.792;10.616;2023-03-20T18:16:23;9.30;99.90
19561;DHT22;9927;47.792;10.616;2023-03-20T18:18:51;9.30;99.90
19561;DHT22;9927;47.792;10.616;2023-03-20T18:21:19;9.30;99.90
19561;DHT22;9927;47.792;10.616;2023-03-20T18:23:46;9.20;99.90
19561;DHT22;9927;47.792;10.616;2023-03-20T18:26:24;9.10;99.90
19561;DHT22;9927;47.792;10.616;2023-03-20T18:28:53;9.00;99.90
19561;DHT22;9927;47.792;10.616;2023-03-20T18:31:21;8.90;99.90
19561;DHT22;9927;47.792;10.616;2023-03-20T18:33:50;8.70;99.90
19561;DHT22;9927;47.792;10.616;2023-03-20T18:36:20;8.60;99.90
19561;DHT22;9927;47.792;10.616;2023-03-20T18:38:48;8.60;99.90
19561;DHT22;9927;47.792;10.616;2023-03-20T18:41:16;8.40;99.90
19561;DHT22;9927;47.792;10.616;2023-03-20T18:43:44;8.40;99.90
19561;DHT22;9927;47.792;10.616;2023-03-20T18:46:20;8.40;99.90
19561;DHT22;9927;47.792;10.616;2023-03-20T18:48:49;8.40;99.90
19561;DHT22;9927;47.792;10.616;2023-03-20T18:51:18;8.30;99.90
19561;DHT22;9927;47.792;10.616;2023-03-20T18:53:46;8.30;99.90
19561;DHT22;9927;47.792;10.616;2023-03-20T18:56:16;8.20;99.90
19561;DHT22;9927;47.792;10.616;2023-03-20T18:58:44;8.20;99.90
19561;DHT22;9927;47.792;10.616;2023-03-20T19:01:13;8.10;99.90
19561;DHT22;9927;47.792;10.616;2023-03-20T19:03:43;8.10;99.90
19561;DHT22;9927;47.792;10.616;2023-03-20T19:06:23;7.90;99.90
19561;DHT22;9927;47.792;10.616;2023-03-20T19:08:51;7.70;99.90
19561;DHT22;9927;47.792;10.616;2023-03-20T19:11:18;7.60;99.90
19561;DHT22;9927;47.792;10.616;2023-03-20T19:13:49;7.40;99.90
19561;DHT22;9927;47.792;10.616;2023-03-20T19:16:27;7.40;99.90
19561;DHT22;9927;47.792;10.616;2023-03-20T19:18:56;7.50;99.90
19561;DHT22;9927;47.792;10.616;2023-03-20T19:21:25;7.40;99.90
19561;DHT22;9927;47.792;10.616;2023-03-20T19:23:57;7.40;99.90
19561;DHT22;9927;47.792;10.616;2023-03-20T19:26:26;7.40;99.90
19561;DHT22;9927;47.792;10.616;2023-03-20T19:28:56;7.40;99.90
19561;DHT22;9927;47.792;10.616;2023-03-20T19:31:24;7.40;99.90
19561;DHT22;9927;47.792;10.616;2023-03-20T19:33:52;7.30;99.90
19561;DHT22;9927;47.792;10.616;2023-03-20T19:36:28;7.30;99.90
19561;DHT22;9927;47.792;10.616;2023-03-20T19:38:57;7.30;99.90
19561;DHT22;9927;47.792;10.616;2023-03-20T19:41:26;7.30;99.90
19561;DHT22;9927;47.792;10.616;2023-03-20T19:43:55;7.30;99.90
19561;DHT22;9927;47.792;10.616;2023-03-20T19:46:24;7.10;99.90
19561;DHT22;9927;47.792;10.616;2023-03-20T19:49:20;7.00;99.90
19561;DHT22;9927;47.792;10.616;2023-03-20T19:51:56;6.90;99.90
19561;DHT22;9927;47.792;10.616;2023-03-20T19:54:23;6.90;99.90
19561;DHT22;9927;47.792;10.616;2023-03-20T19:56:50;7.00;99.90
19561;DHT22;9927;47.792;10.616;2023-03-20T19:59:17;7.00;99.90
19561;DHT22;9927;47.792;10.616;2023-03-20T20:01:47;7.00;99.90
19561;DHT22;9927;47.792;10.616;2023-03-20T20:04:14;7.10;99.90
19561;DHT22;9927;47.792;10.616;2023-03-20T20:06:42;7.10;99.90
19561;DHT22;9927;47.792;10.616;2023-03-20T20:09:09;7.20;99.90
19561;DHT22;9927;47.792;10.616;2023-03-20T20:11:37;7.20;99.90
19561;DHT22;9927;47.792;10.616;2023-03-20T20:14:04;7.20;99.90
19561;DHT22;9927;47.792;10.616;2023-03-20T20:16:36;7.30;99.90
19561;DHT22;9927;47.792;10.616;2023-03-20T20:19:05;7.30;99.90
19561;DHT22;9927;47.792;10.616;2023-03-20T20:21:32;7.30;99.90
19561;DHT22;9927;47.792;10.616;2023-03-20T20:24:20;7.30;99.90
19561;DHT22;9927;47.792;10.616;2023-03-20T20:26:51;7.30;99.90
19561;DHT22;9927;47.792;10.616;2023-03-20T20:29:33;7.40;99.90
19561;DHT22;9927;47.792;10.616;2023-03-20T20:32:00;7.40;99.90
19561;DHT22;9927;47.792;10.616;2023-03-20T20:34:29;7.00;99.90
19561;DHT22;9927;47.792;10.616;2023-03-20T20:37:16;7.00;99.90
19561;DHT22;9927;47.792;10.616;2023-03-20T20:40:04;7.00;99.90
19561;DHT22;9927;47.792;10.616;2023-03-20T20:42:32;6.90;99.90
19561;DHT22;9927;47.792;10.616;2023-03-20T20:44:59;6.80;99.90
19561;DHT22;9927;47.792;10.616;2023-03-20T20:47:26;6.70;99.90
19561;DHT22;9927;47.792;10.616;2023-03-20T20:49:53;6.80;99.90
19561;DHT22;9927;47.792;10.616;2023-03-20T20:52:21;6.80;99.90
19561;DHT22;9927;47.792;10.616;2023-03-20T20:54:48;6.70;99.90
19561;DHT22;9927;47.792;10.616;2023-03-20T20:57:15;6.80;99.90
19561;DHT22;9927;47.792;10.616;2023-03-20T20:59:43;6.80;99.90
19561;DHT22;9927;47.792;10.616;2023-03-20T21:02:11;6.80;99.90
19561;DHT22;9927;47.792;10.616;2023-03-20T21:04:40;6.90;99.90
19561;DHT22;9927;47.792;10.616;2023-03-20T21:07:11;7.00;99.90
19561;DHT22;9927;47.792;10.616;2023-03-20T21:09:39;7.10;99.90
19561;DHT22;9927;47.792;10.616;2023-03-20T21:12:08;7.20;99.90
19561;DHT22;9927;47.792;10.616;2023-03-20T21:14:36;7.10;99.90
19561;DHT22;9927;47.792;10.616;2023-03-20T21:17:04;7.20;99.90
19561;DHT22;9927;47.792;10.616;2023-03-20T21:19:38;7.20;99.90
19561;DHT22;9927;47.792;10.616;2023-03-20T21:22:07;7.20;99.90
19561;DHT22;9927;47.792;10.616;2023-03-20T21:24:35;7.10;99.90
19561;DHT22;9927;47.792;10.616;2023-03-20T21:27:04;7.10;99.90
19561;DHT22;9927;47.792;10.616;2023-03-20T21:29:31;7.10;99.90
19561;DHT22;9927;47.792;10.616;2023-03-20T21:31:59;7.20;99.90
19561;DHT22;9927;47.792;10.616;2023-03-20T21:34:27;7.20;99.90
19561;DHT22;9927;47.792;10.616;2023-03-20T21:36:55;7.20;99.90
19561;DHT22;9927;47.792;10.616;2023-03-20T21:39:25;7.20;99.90
19561;DHT22;9927;47.792;10.616;2023-03-20T21:41:54;7.20;99.90
19561;DHT22;9927;47.792;10.616;2023-03-20T21:44:22;7.20;99.90